createdAt,value
2023-11-20T00:01:08.790Z,12.8
2023-11-20T00:06:08.473Z,14.1
2023-11-20T00:11:07.580Z,11.6
2023-11-20T00:16:07.444Z,9.9
2023-11-20T00:21:07.125Z,12.5
2023-11-20T00:26:06.877Z,11.5
2023-11-20T00:31:06.700Z,12.1
2023-11-20T00:36:06.323Z,11.8
2023-11-20T00:41:06.332Z,12.4
2023-11-20T00:46:06.080Z,12.1
2023-11-20T00:51:05.796Z,14.7
2023-11-20T00:56:05.656Z,14.5
2023-11-20T01:01:05.523Z,12.6
2023-11-20T01:06:06.132Z,12.4
2023-11-20T01:11:05.005Z,12.1
2023-11-20T01:16:05.691Z,9.8
2023-11-20T01:21:04.633Z,13
2023-11-20T01:26:04.312Z,12.7
2023-11-20T01:31:05.184Z,15.1
2023-11-20T01:36:03.904Z,14.5
2023-11-20T01:41:03.737Z,10.2
2023-11-20T01:46:08.066Z,12.7
2023-11-20T01:51:03.406Z,9.9
2023-11-20T01:56:04.609Z,13.4
2023-11-20T02:01:03.126Z,10.6
2023-11-20T02:06:02.815Z,9.8
2023-11-20T02:11:06.851Z,9.7
2023-11-20T02:16:03.230Z,7.2
2023-11-20T02:21:02.135Z,8.8
2023-11-20T02:26:13.960Z,7.9
2023-11-20T02:31:02.098Z,8.4
2023-11-20T02:36:04.231Z,7.3
2023-11-20T02:41:01.286Z,6.6
2023-11-20T02:46:02.202Z,5.5
2023-11-20T02:51:00.885Z,6.1
2023-11-20T02:56:00.689Z,4.8
2023-11-20T03:01:00.518Z,4.3
2023-11-20T03:06:00.231Z,6.9
2023-11-20T03:10:59.941Z,6.5
2023-11-20T03:16:00.225Z,6.1
2023-11-20T03:20:59.373Z,7.3
2023-11-20T03:25:59.237Z,11.5
2023-11-20T03:30:59.067Z,7.8
2023-11-20T03:35:58.707Z,8.2
2023-11-20T03:40:58.417Z,6.5
2023-11-20T03:45:58.230Z,7.5
2023-11-20T03:50:57.921Z,9.3
2023-11-20T03:55:57.718Z,11.4
2023-11-20T04:00:57.465Z,8
2023-11-20T04:05:57.274Z,7.4
2023-11-20T04:10:56.858Z,9
2023-11-20T04:15:59.645Z,11.8
2023-11-20T04:20:56.965Z,10.4
2023-11-20T04:25:57.996Z,9.7
2023-11-20T04:30:58.918Z,5.6
2023-11-20T04:35:58.476Z,8.4
2023-11-20T04:40:55.632Z,8.5
2023-11-20T04:45:56.808Z,10.6
2023-11-20T04:50:55.353Z,14.2
2023-11-20T04:55:57.612Z,15.4
2023-11-20T05:00:56.079Z,20.4
2023-11-20T05:05:54.366Z,21
2023-11-20T05:10:54.737Z,17.5
2023-11-20T05:15:54.006Z,22
2023-11-20T05:20:53.417Z,18.7
2023-11-20T05:25:55.048Z,21.7
2023-11-20T05:30:53.649Z,23.8
2023-11-20T05:35:52.775Z,23.8
2023-11-20T05:40:52.360Z,27.3
2023-11-20T05:45:52.152Z,22.6
2023-11-20T05:50:51.866Z,24.9
2023-11-20T05:55:51.836Z,27.7
2023-11-20T06:00:51.503Z,19.6
2023-11-20T06:05:51.090Z,23.4
2023-11-20T06:10:50.866Z,27.5
2023-11-20T06:15:50.568Z,24.3
2023-11-20T06:20:50.331Z,26.5
2023-11-20T06:25:50.081Z,21.7
2023-11-20T06:30:52.256Z,25.8
2023-11-20T06:35:49.640Z,25.2
2023-11-20T06:40:49.939Z,21.8
2023-11-20T06:45:48.988Z,25.2
2023-11-20T06:50:48.874Z,25.2
2023-11-20T06:55:48.500Z,20.7
2023-11-20T07:00:48.085Z,20.4
2023-11-20T07:05:47.979Z,21.8
2023-11-20T07:10:47.604Z,20.5
2023-11-20T07:15:47.451Z,25.1
2023-11-20T07:20:47.675Z,24.1
2023-11-20T07:25:46.948Z,21.9
2023-11-20T07:30:47.377Z,22.4
2023-11-20T07:35:46.442Z,21.2
2023-11-20T07:40:46.646Z,22.1
2023-11-20T07:45:46.586Z,22.9
2023-11-20T07:50:47.068Z,24.9
2023-11-20T07:55:47.256Z,25.9
2023-11-20T08:00:45.019Z,22.6
2023-11-20T08:05:49.553Z,17.2
2023-11-20T08:10:47.534Z,19.7
2023-11-20T08:15:45.149Z,17.1
2023-11-20T08:20:43.994Z,23.6
2023-11-20T08:25:46.659Z,20.5
2023-11-20T08:30:43.470Z,16.2
2023-11-20T08:35:43.260Z,21.2
2023-11-20T08:40:42.952Z,15.9
2023-11-20T08:45:42.749Z,17.5
2023-11-20T08:50:42.479Z,19.1
2023-11-20T08:55:42.339Z,25.6
2023-11-20T09:00:43.486Z,20.5
2023-11-20T09:05:41.871Z,24.9
2023-11-20T09:10:41.662Z,22.9
2023-11-20T09:15:41.375Z,20.6
2023-11-20T09:20:41.359Z,19.9
2023-11-20T09:25:43.580Z,22
2023-11-20T09:30:40.848Z,17.5
2023-11-20T09:35:41.042Z,15.8
2023-11-20T09:40:43.860Z,19.9
2023-11-20T09:45:50.262Z,20.8
2023-11-20T09:50:41.609Z,23.3
2023-11-20T09:55:41.221Z,22
2023-11-20T10:00:40.394Z,21.3
2023-11-20T10:05:43.252Z,20
2023-11-20T10:10:39.512Z,20.7
2023-11-20T10:15:40.167Z,17.9
2023-11-20T10:20:50.825Z,19.1
2023-11-20T10:25:39.582Z,20.6
2023-11-20T10:30:38.353Z,23.2
2023-11-20T10:35:38.381Z,21.8
2023-11-20T10:40:37.822Z,17.7
2023-11-20T10:45:38.137Z,17.9
2023-11-20T10:50:39.395Z,21.9
2023-11-20T10:55:43.907Z,21
2023-11-20T11:00:40.434Z,16.1
2023-11-20T11:05:39.082Z,16.3
2023-11-20T11:10:37.877Z,18.2
2023-11-20T11:15:36.955Z,19.3
2023-11-20T11:20:40.012Z,16.2
2023-11-20T11:25:40.666Z,17.5
2023-11-20T11:30:38.825Z,17.9
2023-11-20T11:35:44.736Z,18.6
2023-11-20T11:40:41.589Z,17
2023-11-20T11:45:38.952Z,15.6
2023-11-20T11:50:39.607Z,19.5
2023-11-20T11:55:44.017Z,20.9
2023-11-20T12:00:35.924Z,17.6
2023-11-20T12:05:35.692Z,18.7
2023-11-20T12:10:51.292Z,15
2023-11-20T12:15:43.731Z,17.6
2023-11-20T12:20:37.700Z,14.9
2023-11-20T12:25:34.943Z,16.3
2023-11-20T12:30:34.732Z,17.5
2023-11-20T12:35:34.622Z,19.4
2023-11-20T12:40:34.383Z,19.4
2023-11-20T12:45:35.119Z,17.7
2023-11-20T12:50:34.014Z,19.8
2023-11-20T12:55:34.041Z,16.3
2023-11-20T13:00:33.836Z,16.5
2023-11-20T13:05:33.520Z,18.8
2023-11-20T13:10:34.162Z,19.3
2023-11-20T13:15:35.489Z,21.6
2023-11-20T13:20:45.760Z,17.7
2023-11-20T13:25:33.699Z,20.6
2023-11-20T13:30:32.397Z,18.2
2023-11-20T13:35:33.341Z,18.9
2023-11-20T13:40:40.776Z,19.9
2023-11-20T13:45:37.267Z,17
2023-11-20T13:50:31.439Z,15.3
2023-11-20T13:55:32.476Z,17.1
2023-11-20T14:00:31.101Z,19.7
2023-11-20T14:05:30.909Z,18.1
2023-11-20T14:10:32.748Z,15
2023-11-20T14:15:30.500Z,10.8
2023-11-20T14:20:31.263Z,10.8
2023-11-20T14:25:30.076Z,11.7
2023-11-20T14:30:31.510Z,9.5
2023-11-20T14:35:29.676Z,10.9
2023-11-20T14:40:31.599Z,12.3
2023-11-20T14:45:29.196Z,14.8
2023-11-20T14:50:30.574Z,8.9
2023-11-20T14:55:28.590Z,10.8
2023-11-20T15:00:28.201Z,13
2023-11-20T15:05:28.779Z,12.1
2023-11-20T15:10:28.448Z,13.9
2023-11-20T15:15:28.704Z,10.5
2023-11-20T15:20:28.676Z,14.8
2023-11-20T15:25:27.192Z,9.4
2023-11-20T15:30:26.196Z,17.2
2023-11-20T15:35:27.599Z,13.5
2023-11-20T15:40:26.921Z,14.3
2023-11-20T15:45:25.359Z,15
2023-11-20T15:50:26.393Z,12.6
2023-11-20T15:55:27.205Z,9.4
2023-11-20T16:00:26.863Z,10.3
2023-11-20T16:05:33.767Z,8.6
2023-11-20T16:10:40.869Z,6.1
2023-11-20T16:15:23.140Z,14.1
2023-11-20T16:20:22.515Z,13.2
2023-11-20T16:25:22.849Z,11
2023-11-20T16:30:23.167Z,13.8
2023-11-20T16:35:24.494Z,14.1
2023-11-20T16:40:21.376Z,12.1
2023-11-20T16:45:20.556Z,10.5
2023-11-20T16:50:20.220Z,11.3
2023-11-20T16:55:19.731Z,14.3
2023-11-20T17:00:20.608Z,18.3
2023-11-20T17:05:19.117Z,15.9
2023-11-20T17:10:18.418Z,20.7
2023-11-20T17:15:18.569Z,20.8
2023-11-20T17:20:19.186Z,21.7
2023-11-20T17:25:17.560Z,18.7
2023-11-20T17:30:17.055Z,17.6
2023-11-20T17:35:21.542Z,25
2023-11-20T17:40:16.709Z,19
2023-11-20T17:45:15.620Z,16.8
2023-11-20T17:50:15.129Z,15.8
2023-11-20T17:55:14.733Z,19.9
2023-11-20T18:00:15.030Z,15
2023-11-20T18:05:13.863Z,24.9
2023-11-20T18:10:15.929Z,22.1
2023-11-20T18:15:13.762Z,17.9
2023-11-20T18:20:13.402Z,21.1
2023-11-20T18:25:12.230Z,27.5
2023-11-20T18:30:12.327Z,21.6
2023-11-20T18:35:11.164Z,25.5
2023-11-20T18:40:15.142Z,36.7
2023-11-20T18:45:10.165Z,43.4
2023-11-20T18:50:10.069Z,37
2023-11-20T18:55:10.400Z,25.7
2023-11-20T19:00:09.621Z,23.5
2023-11-20T19:05:08.475Z,26.2
2023-11-20T19:10:08.133Z,19.6
2023-11-20T19:15:09.501Z,22.2
2023-11-20T19:20:08.752Z,24.4
2023-11-20T19:25:06.474Z,38.5
2023-11-20T19:30:05.918Z,45.8
2023-11-20T19:35:05.710Z,38.2
2023-11-20T19:40:07.932Z,43.3
2023-11-20T19:45:05.101Z,37.2
2023-11-20T19:50:05.040Z,33.8
2023-11-20T19:55:03.770Z,51.2
2023-11-20T20:00:06.552Z,39.3
2023-11-20T20:05:04.158Z,26.3
2023-11-20T20:10:04.761Z,27.2
2023-11-20T20:15:01.894Z,34.7
2023-11-20T20:20:02.762Z,38.5
2023-11-20T20:25:01.055Z,42.9
2023-11-20T20:30:00.613Z,61.6
2023-11-20T20:35:00.193Z,61.6
2023-11-20T20:39:59.765Z,53.2
2023-11-20T20:45:00.115Z,47.2
2023-11-20T20:49:58.806Z,48.7
2023-11-20T20:55:00.355Z,51.2
2023-11-20T20:59:57.973Z,58.1
2023-11-20T21:04:57.519Z,57.8
2023-11-20T21:09:57.108Z,63.9
2023-11-20T21:14:56.630Z,61.3
2023-11-20T21:19:56.724Z,56.1
2023-11-20T21:24:55.718Z,48
2023-11-20T21:29:55.562Z,54
2023-11-20T21:35:02.077Z,52.4
2023-11-20T21:39:54.444Z,62.3
2023-11-20T21:44:54.276Z,62.3
2023-11-20T21:49:53.554Z,57.1
2023-11-20T21:54:53.202Z,63.6
2023-11-20T21:59:53.130Z,51.3
2023-11-20T22:04:52.399Z,49.4
2023-11-20T22:09:51.898Z,57.7
2023-11-20T22:14:51.939Z,50.3
2023-11-20T22:19:51.037Z,52.8
2023-11-20T22:24:50.947Z,56.9
2023-11-20T22:29:50.229Z,59.6
2023-11-20T22:35:05.921Z,62.4
2023-11-20T22:39:50.532Z,46.4
2023-11-20T22:44:49.278Z,50.2
2023-11-20T22:49:48.877Z,53.7
2023-11-20T22:54:48.684Z,49.5
2023-11-20T22:59:47.820Z,47.2
2023-11-20T23:04:48.748Z,62.2
2023-11-20T23:09:47.124Z,51.8
2023-11-20T23:14:47.008Z,53.6
2023-11-20T23:19:46.274Z,59.6
2023-11-20T23:24:45.737Z,62.5
2023-11-20T23:29:45.744Z,63.9
2023-11-20T23:34:44.974Z,53.5
2023-11-20T23:39:44.879Z,63.3
2023-11-20T23:44:44.249Z,72.8
2023-11-20T23:49:44.468Z,85.9
2023-11-20T23:54:43.356Z,84.8
2023-11-20T23:59:42.878Z,109.3
